Time;durP1;ratioP1;P1;durP2;ratioP2;P2;SDS_P1;SDS_P2;PMS_P1;PMS_P2;Temp;Humidity;BMP_temperature;BMP_pressure;BME280_temperature;BME280_humidity;BME280_pressure;Samples;Min_cycle;Max_cycle;Signal;HPM_P1;HPM_P2
2022/03/10 00:01:35;;;;;;;;;;;3.70;99.90;;;;;;5171915;27;20266;-70
2022/03/10 00:04:01;;;;;;;;;;;3.70;99.90;;;;;;5136911;27;19927;-70
2022/03/10 00:06:26;;;;;;;;;;;3.70;99.90;;;;;;5137403;27;20015;-70
2022/03/10 00:08:52;;;;;;;;;;;3.80;99.90;;;;;;5171813;27;19923;-72
2022/03/10 00:11:17;;;;;;;;;;;3.70;99.90;;;;;;5155456;27;20013;-71
2022/03/10 00:13:43;;;;;;;;;;;2.50;99.90;;;;;;5155174;27;19923;-70
2022/03/10 00:16:09;;;;;;;;;;;5.00;99.90;;;;;;5171776;27;20018;-71
2022/03/10 00:18:34;;;;;;;;;;;3.50;99.90;;;;;;5155417;27;20421;-70
2022/03/10 00:21:00;;;;;;;;;;;3.90;99.90;;;;;;5155205;27;19930;-71
2022/03/10 00:23:25;;;;;;;;;;;4.90;99.90;;;;;;5155308;27;19930;-70
2022/03/10 00:25:51;;;;;;;;;;;3.50;99.90;;;;;;5136894;27;19972;-71
2022/03/10 00:28:18;;;;;;;;;;;3.90;99.90;;;;;;5155268;27;19927;-70
2022/03/10 00:30:43;;;;;;;;;;;3.90;99.90;;;;;;5171572;27;19923;-71
2022/03/10 00:33:09;;;;;;;;;;;4.10;99.90;;;;;;5155056;27;19946;-72
2022/03/10 00:35:34;;;;;;;;;;;3.70;99.90;;;;;;5171892;27;19927;-72
2022/03/10 00:38:00;;;;;;;;;;;3.40;99.90;;;;;;5155285;27;19927;-72
2022/03/10 00:40:26;;;;;;;;;;;4.20;99.90;;;;;;5155273;27;19923;-70
2022/03/10 00:42:51;;;;;;;;;;;3.40;99.90;;;;;;5136733;27;19929;-70
2022/03/10 00:45:17;;;;;;;;;;;1.80;99.90;;;;;;5158732;27;19923;-70
2022/03/10 00:47:43;;;;;;;;;;;3.30;99.90;;;;;;5175690;27;19923;-73
2022/03/10 00:50:09;;;;;;;;;;;3.10;99.90;;;;;;5140900;27;19923;-70
2022/03/10 00:52:43;;;;;;;;;;;3.30;99.90;;;;;;5159146;27;19930;-69
2022/03/10 00:55:09;;;;;;;;;;;3.30;99.90;;;;;;5159116;27;20400;-71
2022/03/10 00:57:35;;;;;;;;;;;3.30;99.90;;;;;;5140554;27;19927;-70
2022/03/10 01:00:00;;;;;;;;;;;4.50;99.90;;;;;;5175446;27;19931;-70
2022/03/10 01:02:26;;;;;;;;;;;3.30;99.90;;;;;;5157325;27;20005;-73
2022/03/10 01:04:51;;;;;;;;;;;4.90;99.90;;;;;;5140626;27;19929;-72
2022/03/10 01:07:17;;;;;;;;;;;4.70;99.90;;;;;;5158856;27;20017;-70
2022/03/10 01:09:43;;;;;;;;;;;3.60;99.90;;;;;;5158912;27;19976;-70
2022/03/10 01:12:08;;;;;;;;;;;3.50;99.90;;;;;;5140384;27;19923;-73
2022/03/10 01:14:34;;;;;;;;;;;3.20;99.90;;;;;;5140038;27;19987;-71
2022/03/10 01:16:59;;;;;;;;;;;3.30;99.90;;;;;;5158495;27;20014;-70
2022/03/10 01:19:25;;;;;;;;;;;3.10;99.90;;;;;;5158464;27;19974;-72
2022/03/10 01:21:50;;;;;;;;;;;3.00;99.90;;;;;;5140126;27;19927;-70
2022/03/10 01:24:16;;;;;;;;;;;4.50;99.90;;;;;;5139545;27;19923;-73
2022/03/10 01:26:42;;;;;;;;;;;3.90;99.90;;;;;;5175009;27;19927;-71
2022/03/10 01:29:07;;;;;;;;;;;3.00;99.90;;;;;;5122244;27;19966;-69
2022/03/10 01:31:33;;;;;;;;;;;3.70;99.90;;;;;;5158383;27;19930;-70
2022/03/10 01:33:59;;;;;;;;;;;2.90;99.90;;;;;;5158176;27;19923;-69
2022/03/10 01:36:25;;;;;;;;;;;2.30;99.90;;;;;;5140213;27;19931;-70
2022/03/10 01:38:51;;;;;;;;;;;3.70;99.90;;;;;;5122998;27;19931;-71
2022/03/10 01:41:17;;;;;;;;;;;2.90;99.90;;;;;;5158186;27;20017;-70
2022/03/10 01:44:02;;;;;;;;;;;3.70;99.90;;;;;;5158015;27;19930;-70
2022/03/10 01:46:28;;;;;;;;;;;4.40;99.90;;;;;;5173163;27;20323;-70
2022/03/10 01:48:54;;;;;;;;;;;2.80;99.90;;;;;;5158177;27;19923;-70
2022/03/10 01:51:21;;;;;;;;;;;2.90;99.90;;;;;;5158146;27;20437;-70
2022/03/10 01:53:50;;;;;;;;;;;3.40;99.90;;;;;;5122631;27;19923;-70
2022/03/10 01:56:16;;;;;;;;;;;4.50;99.90;;;;;;5156869;27;19923;-69
2022/03/10 01:58:42;;;;;;;;;;;4.80;99.90;;;;;;5139684;27;19931;-70
2022/03/10 02:01:10;;;;;;;;;;;2.70;99.90;;;;;;5157772;27;20323;-69
2022/03/10 02:03:37;;;;;;;;;;;3.90;99.90;;;;;;5139196;27;19923;-71
2022/03/10 02:06:03;;;;;;;;;;;2.90;99.90;;;;;;5157826;27;20339;-72
2022/03/10 02:11:13;;;;;;;;;;;2.70;99.90;;;;;;5139193;27;20339;-70
2022/03/10 02:13:39;;;;;;;;;;;2.70;99.90;;;;;;5157303;27;19923;-70
2022/03/10 02:18:52;;;;;;;;;;;2.60;99.90;;;;;;5157504;27;20372;-70
2022/03/10 02:21:18;;;;;;;;;;;2.50;99.90;;;;;;5138506;27;19974;-70
2022/03/10 02:23:44;;;;;;;;;;;2.50;99.90;;;;;;5157216;27;19923;-71
2022/03/10 02:26:10;;;;;;;;;;;3.20;99.90;;;;;;5138886;27;20014;-70
2022/03/10 02:28:36;;;;;;;;;;;4.20;99.90;;;;;;5157059;27;19930;-70
2022/03/10 02:31:01;;;;;;;;;;;2.50;99.90;;;;;;5157351;27;19923;-72
2022/03/10 02:33:27;;;;;;;;;;;2.50;99.90;;;;;;5157346;27;19975;-71
2022/03/10 02:35:52;;;;;;;;;;;2.00;99.90;;;;;;5157291;27;20389;-70
2022/03/10 02:38:19;;;;;;;;;;;3.50;99.90;;;;;;5173529;27;20358;-70
2022/03/10 02:40:45;;;;;;;;;;;2.50;99.90;;;;;;5157081;27;19930;-70
2022/03/10 02:43:11;;;;;;;;;;;3.30;99.90;;;;;;5156847;27;20336;-70
2022/03/10 02:45:36;;;;;;;;;;;2.50;99.90;;;;;;5173571;27;19930;-70
2022/03/10 02:48:02;;;;;;;;;;;3.40;99.90;;;;;;5157067;27;19930;-73
2022/03/10 02:50:28;;;;;;;;;;;1.40;99.90;;;;;;5138565;27;19983;-69
2022/03/10 02:52:54;;;;;;;;;;;2.50;99.90;;;;;;5156682;27;19930;-68
2022/03/10 02:55:19;;;;;;;;;;;3.50;99.90;;;;;;5173167;27;19927;-73
2022/03/10 02:57:45;;;;;;;;;;;4.00;99.90;;;;;;5156572;27;19946;-69
2022/03/10 03:00:10;;;;;;;;;;;2.40;99.90;;;;;;5156463;27;20321;-69
2022/03/10 03:02:38;;;;;;;;;;;2.40;99.90;;;;;;5156592;27;19923;-70
2022/03/10 03:05:04;;;;;;;;;;;2.40;99.90;;;;;;5138201;27;19923;-69
2022/03/10 03:07:30;;;;;;;;;;;2.40;99.90;;;;;;5156214;27;19981;-70
2022/03/10 03:09:55;;;;;;;;;;;3.90;99.90;;;;;;5156393;27;19923;-69
2022/03/10 03:12:21;;;;;;;;;;;2.40;99.90;;;;;;5138143;27;19927;-71
2022/03/10 03:14:46;;;;;;;;;;;3.30;99.90;;;;;;5137620;27;19923;-71
2022/03/10 03:17:12;;;;;;;;;;;1.40;99.90;;;;;;5156352;27;20011;-70
2022/03/10 03:19:37;;;;;;;;;;;3.10;99.90;;;;;;5154940;27;20022;-71
2022/03/10 03:22:03;;;;;;;;;;;2.40;99.90;;;;;;5156201;27;19970;-70
2022/03/10 03:24:29;;;;;;;;;;;2.40;99.90;;;;;;5156162;27;19923;-72
2022/03/10 03:26:54;;;;;;;;;;;2.90;99.90;;;;;;5156139;27;19970;-70
2022/03/10 03:29:20;;;;;;;;;;;4.00;99.90;;;;;;5155994;27;19924;-70
2022/03/10 03:31:45;;;;;;;;;;;2.40;99.90;;;;;;5156156;27;20438;-70
2022/03/10 03:34:11;;;;;;;;;;;2.70;99.90;;;;;;5137917;27;20385;-72
2022/03/10 03:36:42;;;;;;;;;;;2.40;99.90;;;;;;5137124;27;20350;-70
2022/03/10 03:39:08;;;;;;;;;;;2.30;99.90;;;;;;5156026;27;19968;-71
2022/03/10 03:41:34;;;;;;;;;;;3.50;99.90;;;;;;5155824;27;19927;-71
2022/03/10 03:43:59;;;;;;;;;;;3.40;99.90;;;;;;5120076;27;19923;-70
2022/03/10 03:46:25;;;;;;;;;;;2.50;99.90;;;;;;5172229;27;19927;-73
2022/03/10 03:48:51;;;;;;;;;;;2.10;99.90;;;;;;5155946;27;19927;-70
2022/03/10 03:51:16;;;;;;;;;;;2.10;99.90;;;;;;5172194;27;19923;-71
2022/03/10 03:53:42;;;;;;;;;;;2.10;99.90;;;;;;5155613;27;19930;-70
2022/03/10 03:56:07;;;;;;;;;;;2.10;99.90;;;;;;5155677;27;19927;-69
2022/03/10 03:58:33;;;;;;;;;;;2.00;99.90;;;;;;5155521;27;19923;-70
2022/03/10 04:00:59;;;;;;;;;;;2.40;99.90;;;;;;5155502;27;20002;-70
2022/03/10 04:03:24;;;;;;;;;;;2.70;99.90;;;;;;5155654;27;19927;-70
2022/03/10 04:05:50;;;;;;;;;;;2.00;99.90;;;;;;5137375;27;19924;-70
2022/03/10 04:08:15;;;;;;;;;;;2.80;99.90;;;;;;5155512;27;19923;-70
2022/03/10 04:10:41;;;;;;;;;;;2.00;99.90;;;;;;5137318;27;20267;-70
2022/03/10 04:13:07;;;;;;;;;;;3.30;99.90;;;;;;5155466;27;19930;-70
2022/03/10 04:15:33;;;;;;;;;;;2.00;99.90;;;;;;5137010;27;20083;-70
2022/03/10 04:17:58;;;;;;;;;;;2.00;99.90;;;;;;5136618;27;20487;-73
2022/03/10 04:20:24;;;;;;;;;;;2.00;99.90;;;;;;5155152;27;20017;-73
2022/03/10 04:22:50;;;;;;;;;;;2.00;99.90;;;;;;5136331;27;19923;-70
2022/03/10 04:25:16;;;;;;;;;;;3.20;99.90;;;;;;5155422;27;20072;-70
2022/03/10 04:27:41;;;;;;;;;;;3.50;99.90;;;;;;5155254;27;20410;-70
2022/03/10 04:30:07;;;;;;;;;;;2.00;99.90;;;;;;5155151;27;19927;-70
2022/03/10 04:32:43;;;;;;;;;;;2.00;99.90;;;;;;5171280;27;19923;-70
2022/03/10 04:35:10;;;;;;;;;;;1.90;99.90;;;;;;5155408;27;20302;-70
2022/03/10 04:37:35;;;;;;;;;;;1.60;99.90;;;;;;5155234;27;19930;-71
2022/03/10 04:40:01;;;;;;;;;;;1.90;99.90;;;;;;5155238;27;20279;-70
2022/03/10 04:42:28;;;;;;;;;;;2.20;99.90;;;;;;5155002;27;19923;-70
2022/03/10 04:44:53;;;;;;;;;;;2.10;99.90;;;;;;5154965;27;19967;-70
2022/03/10 04:47:19;;;;;;;;;;;2.70;99.90;;;;;;5155277;27;20321;-70
2022/03/10 04:49:44;;;;;;;;;;;3.10;99.90;;;;;;5171546;27;20010;-70
2022/03/10 04:52:10;;;;;;;;;;;2.40;99.90;;;;;;5136389;27;19923;-70
2022/03/10 04:54:36;;;;;;;;;;;3.20;99.90;;;;;;5136833;27;20014;-70
2022/03/10 04:57:01;;;;;;;;;;;1.90;99.90;;;;;;5171464;27;19930;-72
2022/03/10 04:59:31;;;;;;;;;;;1.90;99.90;;;;;;5154983;27;20306;-70
2022/03/10 05:01:56;;;;;;;;;;;2.80;99.90;;;;;;5136476;27;19923;-72
2022/03/10 05:04:22;;;;;;;;;;;1.80;99.90;;;;;;5155009;27;19930;-70
2022/03/10 05:06:47;;;;;;;;;;;1.80;99.90;;;;;;5171472;27;20446;-69
2022/03/10 05:09:13;;;;;;;;;;;1.80;99.90;;;;;;5136661;27;19945;-70
2022/03/10 05:11:39;;;;;;;;;;;3.10;99.90;;;;;;5171387;27;19923;-70
2022/03/10 05:14:04;;;;;;;;;;;1.80;99.90;;;;;;5119225;27;19953;-70
2022/03/10 05:16:30;;;;;;;;;;;1.80;99.90;;;;;;5136318;27;19923;-73
2022/03/10 05:18:55;;;;;;;;;;;1.80;99.90;;;;;;5154919;27;20010;-70
2022/03/10 05:21:21;;;;;;;;;;;2.70;99.90;;;;;;5171246;27;19927;-70
2022/03/10 05:23:46;;;;;;;;;;;1.70;99.90;;;;;;5136298;27;19923;-71
2022/03/10 05:26:12;;;;;;;;;;;3.20;99.90;;;;;;5136340;27;19923;-70
2022/03/10 05:28:38;;;;;;;;;;;1.60;99.90;;;;;;5154754;27;19930;-70
2022/03/10 05:31:03;;;;;;;;;;;2.60;99.90;;;;;;5137018;27;20284;-70
2022/03/10 05:33:29;;;;;;;;;;;1.60;99.90;;;;;;5158304;27;19923;-71
2022/03/10 05:35:54;;;;;;;;;;;3.50;99.90;;;;;;5158529;27;19976;-71
2022/03/10 05:38:20;;;;;;;;;;;1.60;99.90;;;;;;5158627;27;19923;-70
2022/03/10 05:40:45;;;;;;;;;;;1.60;99.90;;;;;;5174802;27;19927;-70
2022/03/10 05:43:11;;;;;;;;;;;1.70;99.90;;;;;;5174513;27;19927;-70
2022/03/10 05:45:36;;;;;;;;;;;3.00;99.90;;;;;;5158111;27;19923;-70
2022/03/10 05:48:02;;;;;;;;;;;2.00;99.90;;;;;;5157973;27;20035;-70
2022/03/10 05:50:27;;;;;;;;;;;1.60;99.90;;;;;;5157986;27;19923;-72
2022/03/10 05:52:53;;;;;;;;;;;2.10;99.90;;;;;;5158081;27;19927;-70
2022/03/10 05:55:20;;;;;;;;;;;1.50;99.90;;;;;;5158089;27;19923;-71
2022/03/10 05:57:46;;;;;;;;;;;1.60;99.90;;;;;;5157906;27;19923;-70
2022/03/10 06:00:11;;;;;;;;;;;1.50;99.90;;;;;;5157792;27;19931;-70
2022/03/10 06:02:38;;;;;;;;;;;1.50;99.90;;;;;;5157691;27;20284;-70
2022/03/10 06:05:04;;;;;;;;;;;3.30;99.90;;;;;;5157902;27;19923;-71
2022/03/10 06:07:30;;;;;;;;;;;1.50;99.90;;;;;;5139244;27;19989;-71
2022/03/10 06:09:56;;;;;;;;;;;1.90;99.90;;;;;;5174339;27;19970;-71
2022/03/10 06:12:22;;;;;;;;;;;2.70;99.90;;;;;;5157765;27;19980;-70
2022/03/10 06:14:47;;;;;;;;;;;1.50;99.90;;;;;;5157341;27;19924;-71
2022/03/10 06:17:13;;;;;;;;;;;1.60;99.90;;;;;;5157491;27;19929;-69
2022/03/10 06:19:39;;;;;;;;;;;1.50;99.90;;;;;;5157225;27;20017;-72
2022/03/10 06:22:04;;;;;;;;;;;2.40;99.90;;;;;;5157335;27;19924;-69
2022/03/10 06:24:30;;;;;;;;;;;1.60;99.90;;;;;;5157410;27;19931;-70
2022/03/10 06:26:55;;;;;;;;;;;1.50;99.90;;;;;;5139134;27;19923;-70
2022/03/10 06:29:21;;;;;;;;;;;2.60;99.90;;;;;;5138425;27;19934;-70
2022/03/10 06:31:47;;;;;;;;;;;3.30;99.90;;;;;;5157145;27;19923;-73
2022/03/10 06:34:13;;;;;;;;;;;1.50;99.90;;;;;;5138865;27;19923;-71
2022/03/10 06:36:38;;;;;;;;;;;0.70;99.90;;;;;;5157358;27;19923;-70
2022/03/10 06:39:06;;;;;;;;;;;1.60;99.90;;;;;;5157108;27;19923;-69
2022/03/10 06:41:31;;;;;;;;;;;3.60;99.90;;;;;;5137847;27;19992;-71
2022/03/10 06:43:57;;;;;;;;;;;3.10;99.90;;;;;;5173062;27;20389;-72
2022/03/10 06:46:22;;;;;;;;;;;2.30;99.90;;;;;;5156909;27;19969;-71
2022/03/10 06:48:48;;;;;;;;;;;3.20;99.90;;;;;;5138552;27;19948;-69
2022/03/10 06:51:14;;;;;;;;;;;3.60;99.90;;;;;;5157061;27;20358;-73
2022/03/10 06:53:39;;;;;;;;;;;2.80;99.90;;;;;;5156899;27;19923;-69
2022/03/10 06:56:05;;;;;;;;;;;2.80;99.90;;;;;;5137848;27;19946;-70
2022/03/10 06:58:31;;;;;;;;;;;3.00;99.90;;;;;;5156795;27;19972;-69
2022/03/10 07:00:56;;;;;;;;;;;1.90;99.90;;;;;;5138393;27;19930;-69
2022/03/10 07:03:22;;;;;;;;;;;1.90;99.90;;;;;;5137998;27;19963;-73
2022/03/10 07:05:47;;;;;;;;;;;3.50;99.90;;;;;;5156370;27;19930;-72
2022/03/10 07:08:13;;;;;;;;;;;2.00;99.90;;;;;;5138403;27;19967;-69
2022/03/10 07:10:39;;;;;;;;;;;2.00;99.90;;;;;;5156594;27;20405;-69
2022/03/10 07:13:06;;;;;;;;;;;3.00;99.90;;;;;;5138335;27;20294;-70
2022/03/10 07:15:32;;;;;;;;;;;2.10;99.90;;;;;;5137703;27;20293;-69
2022/03/10 07:17:58;;;;;;;;;;;2.90;99.90;;;;;;5172748;27;19927;-70
2022/03/10 07:20:23;;;;;;;;;;;1.50;99.90;;;;;;5172666;27;19969;-69
2022/03/10 07:22:49;;;;;;;;;;;3.00;99.90;;;;;;5156208;27;19923;-69
2022/03/10 07:25:14;;;;;;;;;;;2.20;99.90;;;;;;5156387;27;20429;-68
2022/03/10 07:27:40;;;;;;;;;;;2.60;99.90;;;;;;5155104;27;19991;-73
2022/03/10 07:30:06;;;;;;;;;;;2.30;99.90;;;;;;5156058;27;19929;-71
2022/03/10 07:32:33;;;;;;;;;;;2.40;99.90;;;;;;5155957;27;19934;-69
2022/03/10 07:34:59;;;;;;;;;;;3.50;99.90;;;;;;5155731;27;19923;-70
2022/03/10 07:37:24;;;;;;;;;;;2.50;99.90;;;;;;5137350;27;19934;-70
2022/03/10 07:39:50;;;;;;;;;;;2.50;99.90;;;;;;5137125;27;20034;-69
2022/03/10 07:42:15;;;;;;;;;;;2.70;99.90;;;;;;5155925;27;19956;-69
2022/03/10 07:44:41;;;;;;;;;;;2.60;99.90;;;;;;5155828;27;19927;-71
2022/03/10 07:47:07;;;;;;;;;;;2.70;99.90;;;;;;5155856;27;19930;-72
2022/03/10 07:49:33;;;;;;;;;;;3.60;99.90;;;;;;5137218;27;19923;-71
2022/03/10 07:52:02;;;;;;;;;;;2.90;99.90;;;;;;5155605;27;20407;-69
2022/03/10 07:54:27;;;;;;;;;;;2.80;99.90;;;;;;5154997;27;20019;-70
2022/03/10 07:56:53;;;;;;;;;;;3.70;99.90;;;;;;5155725;27;20397;-70
2022/03/10 07:59:18;;;;;;;;;;;3.10;99.90;;;;;;5155566;27;19923;-71
2022/03/10 08:01:44;;;;;;;;;;;3.10;99.90;;;;;;5155516;27;20017;-69
2022/03/10 08:04:10;;;;;;;;;;;3.70;99.90;;;;;;5155472;27;19948;-72
2022/03/10 08:06:35;;;;;;;;;;;3.60;99.90;;;;;;5155411;27;19923;-70
2022/03/10 08:09:06;;;;;;;;;;;4.40;99.90;;;;;;5155586;27;20435;-72
2022/03/10 08:11:32;;;;;;;;;;;4.60;99.90;;;;;;5155623;27;19934;-70
2022/03/10 08:13:57;;;;;;;;;;;3.40;99.90;;;;;;5171725;27;20013;-71
2022/03/10 08:16:23;;;;;;;;;;;3.50;99.90;;;;;;5155339;27;19923;-69
2022/03/10 08:18:49;;;;;;;;;;;4.00;99.90;;;;;;5155437;27;19930;-70
2022/03/10 08:21:15;;;;;;;;;;;3.50;99.90;;;;;;5155639;27;20373;-72
2022/03/10 08:23:41;;;;;;;;;;;3.80;99.90;;;;;;5155393;27;19931;-70
2022/03/10 08:26:06;;;;;;;;;;;3.80;99.90;;;;;;5155348;27;20305;-71
2022/03/10 08:28:33;;;;;;;;;;;4.10;99.90;;;;;;5155396;27;20380;-73
2022/03/10 08:30:59;;;;;;;;;;;4.30;99.90;;;;;;5155266;27;20486;-70
2022/03/10 08:33:24;;;;;;;;;;;4.60;99.90;;;;;;5155330;27;19927;-72
2022/03/10 08:35:50;;;;;;;;;;;5.40;99.90;;;;;;5155176;27;20015;-74
2022/03/10 08:38:16;;;;;;;;;;;4.90;99.90;;;;;;5155058;27;19930;-72
2022/03/10 08:40:42;;;;;;;;;;;4.80;99.90;;;;;;5155279;27;19952;-73
2022/03/10 08:43:12;;;;;;;;;;;4.50;99.90;;;;;;5155180;27;20022;-69
2022/03/10 08:45:38;;;;;;;;;;;4.60;99.90;;;;;;5155193;27;19923;-70
2022/03/10 08:48:03;;;;;;;;;;;5.40;99.90;;;;;;5155121;27;19932;-70
2022/03/10 08:50:29;;;;;;;;;;;4.80;99.90;;;;;;5136624;27;19969;-69
2022/03/10 08:52:54;;;;;;;;;;;4.90;99.90;;;;;;5154508;27;20022;-69
2022/03/10 08:55:20;;;;;;;;;;;5.00;99.90;;;;;;5155108;27;19923;-69
2022/03/10 08:57:47;;;;;;;;;;;5.10;99.90;;;;;;5155038;27;19968;-70
2022/03/10 09:00:13;;;;;;;;;;;5.20;99.90;;;;;;5136558;27;19936;-73
2022/03/10 09:02:41;;;;;;;;;;;5.30;99.90;;;;;;5171351;27;20041;-73
2022/03/10 09:05:08;;;;;;;;;;;6.50;99.90;;;;;;5156381;27;19977;-70
2022/03/10 09:07:34;;;;;;;;;;;5.50;99.90;;;;;;5159270;27;19931;-72
2022/03/10 09:09:59;;;;;;;;;;;5.60;99.90;;;;;;5159002;27;19930;-70
2022/03/10 09:12:26;;;;;;;;;;;6.80;99.90;;;;;;5158916;27;19923;-72
2022/03/10 09:14:52;;;;;;;;;;;6.10;99.90;;;;;;5140283;27;19966;-69
2022/03/10 09:17:17;;;;;;;;;;;6.00;99.90;;;;;;5158743;27;20001;-70
2022/03/10 09:19:43;;;;;;;;;;;6.20;99.90;;;;;;5158556;27;19930;-71
2022/03/10 09:22:09;;;;;;;;;;;6.20;99.90;;;;;;5158625;27;19930;-71
2022/03/10 09:24:34;;;;;;;;;;;6.40;99.90;;;;;;5158590;27;19946;-70
2022/03/10 09:27:00;;;;;;;;;;;6.50;99.90;;;;;;5140343;27;19971;-70
2022/03/10 09:29:25;;;;;;;;;;;6.50;99.90;;;;;;5158481;27;19988;-71
2022/03/10 09:31:52;;;;;;;;;;;6.60;99.90;;;;;;5158514;27;19927;-74
2022/03/10 09:34:17;;;;;;;;;;;7.80;99.90;;;;;;5158455;27;19925;-72
2022/03/10 09:36:43;;;;;;;;;;;7.50;99.90;;;;;;5158295;27;20320;-72
2022/03/10 09:39:09;;;;;;;;;;;6.90;99.90;;;;;;5158082;27;20358;-71
2022/03/10 09:41:37;;;;;;;;;;;7.00;99.90;;;;;;5174077;27;20014;-72
2022/03/10 09:44:14;;;;;;;;;;;7.10;99.90;;;;;;5158001;27;19923;-71
2022/03/10 09:46:40;;;;;;;;;;;7.30;99.90;;;;;;5158007;27;19923;-73
2022/03/10 09:49:05;;;;;;;;;;;6.50;99.90;;;;;;5122555;27;19948;-70
2022/03/10 09:51:31;;;;;;;;;;;7.50;99.90;;;;;;5157716;27;19979;-70
2022/03/10 09:53:57;;;;;;;;;;;7.60;99.90;;;;;;5158035;27;19937;-71
2022/03/10 09:56:22;;;;;;;;;;;9.00;97.70;;;;;;5157894;27;20071;-72
2022/03/10 09:58:48;;;;;;;;;;;7.90;95.80;;;;;;5139484;27;20315;-71
2022/03/10 10:01:13;;;;;;;;;;;8.00;97.10;;;;;;5157752;27;19924;-74
2022/03/10 10:03:39;;;;;;;;;;;8.20;97.40;;;;;;5139131;27;19923;-72
2022/03/10 10:06:05;;;;;;;;;;;8.30;90.30;;;;;;5157532;27;19923;-70
2022/03/10 10:08:32;;;;;;;;;;;8.40;93.00;;;;;;5157350;27;19927;-70
2022/03/10 10:11:01;;;;;;;;;;;8.50;93.20;;;;;;5157603;27;19930;-70
2022/03/10 10:13:31;;;;;;;;;;;8.60;90.40;;;;;;5139332;27;19975;-70
2022/03/10 10:16:04;;;;;;;;;;;8.70;90.10;;;;;;5156853;27;19923;-71
2022/03/10 10:18:30;;;;;;;;;;;8.90;77.60;;;;;;5157144;27;19960;-71
2022/03/10 10:20:56;;;;;;;;;;;9.00;73.30;;;;;;5138635;27;19923;-70
2022/03/10 10:23:40;;;;;;;;;;;9.10;75.70;;;;;;5138313;27;20019;-70
2022/03/10 10:26:07;;;;;;;;;;;9.20;83.80;;;;;;5138996;27;19930;-71
2022/03/10 10:28:37;;;;;;;;;;;9.40;82.00;;;;;;5157155;27;19934;-72
2022/03/10 10:31:03;;;;;;;;;;;9.50;77.90;;;;;;5157077;27;19923;-71
2022/03/10 10:33:30;;;;;;;;;;;9.60;74.90;;;;;;5156908;27;19923;-70
2022/03/10 10:36:14;;;;;;;;;;;9.70;74.50;;;;;;5138333;27;20285;-70
2022/03/10 10:38:41;;;;;;;;;;;9.80;78.90;;;;;;5138365;27;20007;-70
2022/03/10 10:41:14;;;;;;;;;;;10.00;77.30;;;;;;5138439;27;20013;-68
2022/03/10 10:43:41;;;;;;;;;;;10.10;77.60;;;;;;5138414;27;20426;-69
2022/03/10 10:46:06;;;;;;;;;;;10.80;69.90;;;;;;5156787;27;19968;-70
2022/03/10 10:48:44;;;;;;;;;;;10.40;70.10;;;;;;5172811;27;19935;-69
2022/03/10 10:51:11;;;;;;;;;;;10.50;69.30;;;;;;5138418;27;19923;-73
2022/03/10 10:53:39;;;;;;;;;;;10.60;65.80;;;;;;5156578;27;19929;-72
2022/03/10 10:56:05;;;;;;;;;;;10.70;62.00;;;;;;5156588;27;19927;-69
2022/03/10 10:58:31;;;;;;;;;;;10.80;63.90;;;;;;5156588;27;19967;-70
2022/03/10 11:00:57;;;;;;;;;;;11.00;68.10;;;;;;5173025;27;20323;-72
2022/03/10 11:03:36;;;;;;;;;;;11.10;61.60;;;;;;5156708;27;19927;-70
2022/03/10 11:06:01;;;;;;;;;;;11.20;61.90;;;;;;5156663;27;19971;-72
2022/03/10 11:08:28;;;;;;;;;;;11.30;61.90;;;;;;5138312;27;19979;-70
2022/03/10 11:10:54;;;;;;;;;;;11.40;62.10;;;;;;5156648;27;19930;-71
2022/03/10 11:13:20;;;;;;;;;;;11.50;62.70;;;;;;5156412;27;19930;-72
2022/03/10 11:15:46;;;;;;;;;;;11.70;57.60;;;;;;5156643;27;20047;-70
2022/03/10 11:18:15;;;;;;;;;;;11.70;57.60;;;;;;5138059;27;19999;-71
2022/03/10 11:20:44;;;;;;;;;;;11.30;63.60;;;;;;5138031;27;19974;-74
2022/03/10 11:23:09;;;;;;;;;;;11.90;62.20;;;;;;5156221;27;19945;-69
2022/03/10 11:25:44;;;;;;;;;;;12.00;60.90;;;;;;5156049;27;20363;-70
2022/03/10 11:28:15;;;;;;;;;;;12.10;58.60;;;;;;5155965;27;19927;-71
2022/03/10 11:30:40;;;;;;;;;;;12.20;62.30;;;;;;5156301;27;19976;-70
2022/03/10 11:33:13;;;;;;;;;;;12.30;57.90;;;;;;5155959;27;19923;-70
2022/03/10 11:35:40;;;;;;;;;;;12.40;57.20;;;;;;5114574;27;20371;-70
2022/03/10 11:38:06;;;;;;;;;;;12.80;56.10;;;;;;5145196;27;19923;-70
2022/03/10 11:40:51;;;;;;;;;;;12.70;57.70;;;;;;5135096;27;19933;-72
2022/03/10 11:43:33;;;;;;;;;;;12.70;52.60;;;;;;5135389;27;19923;-73
2022/03/10 11:46:19;;;;;;;;;;;12.80;52.30;;;;;;5135257;27;20398;-70
2022/03/10 11:48:59;;;;;;;;;;;12.90;53.30;;;;;;5135206;27;19927;-70
2022/03/10 11:51:39;;;;;;;;;;;12.90;55.60;;;;;;5135310;27;19931;-70
2022/03/10 11:54:05;;;;;;;;;;;13.00;52.10;;;;;;5134866;27;20328;-70
2022/03/10 11:56:43;;;;;;;;;;;13.00;51.60;;;;;;5116949;27;19991;-73
2022/03/10 11:59:25;;;;;;;;;;;13.10;52.00;;;;;;5134957;27;20418;-70
2022/03/10 12:01:51;;;;;;;;;;;13.10;52.50;;;;;;5116536;27;19923;-69
2022/03/10 12:04:18;;;;;;;;;;;13.10;53.90;;;;;;5116382;27;19931;-70
2022/03/10 12:07:02;;;;;;;;;;;13.20;54.40;;;;;;5134979;27;20305;-70
2022/03/10 12:09:41;;;;;;;;;;;13.20;52.80;;;;;;5150900;27;19923;-73
2022/03/10 12:12:18;;;;;;;;;;;13.20;52.90;;;;;;5134757;27;19923;-70
2022/03/10 12:14:44;;;;;;;;;;;13.30;52.20;;;;;;5134754;27;19930;-71
2022/03/10 12:17:28;;;;;;;;;;;13.40;55.90;;;;;;5134779;27;19923;-70
2022/03/10 12:20:12;;;;;;;;;;;13.40;50.70;;;;;;5110569;28;19924;-70
2022/03/10 12:22:38;;;;;;;;;;;13.50;51.70;;;;;;5113894;28;20279;-73
2022/03/10 12:25:20;;;;;;;;;;;13.50;51.20;;;;;;5113943;28;19953;-72
2022/03/10 12:27:49;;;;;;;;;;;13.60;54.20;;;;;;5096053;28;20022;-72
2022/03/10 12:30:15;;;;;;;;;;;13.60;52.70;;;;;;5096031;28;19992;-70
2022/03/10 12:32:44;;;;;;;;;;;13.60;54.80;;;;;;5114191;28;20031;-70
2022/03/10 12:35:09;;;;;;;;;;;13.70;55.00;;;;;;5113966;28;19966;-71
2022/03/10 12:37:35;;;;;;;;;;;13.70;52.90;;;;;;5095955;28;20310;-72
2022/03/10 12:40:00;;;;;;;;;;;13.90;53.30;;;;;;5115752;28;19923;-70
2022/03/10 12:42:27;;;;;;;;;;;13.70;50.10;;;;;;5100335;28;19930;-74
2022/03/10 12:44:54;;;;;;;;;;;13.80;51.60;;;;;;5100230;28;19924;-70
2022/03/10 12:47:20;;;;;;;;;;;13.80;52.70;;;;;;5118055;28;19924;-70
2022/03/10 12:49:50;;;;;;;;;;;13.80;50.90;;;;;;5118006;28;19924;-73
2022/03/10 12:52:16;;;;;;;;;;;13.80;52.40;;;;;;5117742;28;19931;-70
2022/03/10 12:54:43;;;;;;;;;;;13.80;50.80;;;;;;5117925;28;19935;-70
2022/03/10 12:57:09;;;;;;;;;;;13.80;49.80;;;;;;5117834;28;20390;-69
2022/03/10 12:59:36;;;;;;;;;;;13.80;50.10;;;;;;5117854;28;19931;-70
2022/03/10 13:02:28;;;;;;;;;;;13.80;50.80;;;;;;5099589;28;19928;-71
2022/03/10 13:04:58;;;;;;;;;;;13.90;49.90;;;;;;5117455;28;19924;-74
2022/03/10 13:07:24;;;;;;;;;;;13.90;52.90;;;;;;5117781;28;20301;-70
2022/03/10 13:09:56;;;;;;;;;;;13.90;50.90;;;;;;5117698;28;20359;-70
2022/03/10 13:12:33;;;;;;;;;;;13.90;50.00;;;;;;5117483;28;20020;-70
2022/03/10 13:14:59;;;;;;;;;;;13.90;50.00;;;;;;5117584;28;20003;-71
2022/03/10 13:17:36;;;;;;;;;;;13.90;49.90;;;;;;5117278;28;19930;-71
2022/03/10 13:20:22;;;;;;;;;;;14.00;49.50;;;;;;5110321;28;20011;-74
2022/03/10 13:22:52;;;;;;;;;;;14.00;48.70;;;;;;5123319;27;20328;-72
2022/03/10 13:25:18;;;;;;;;;;;14.00;49.50;;;;;;5137881;27;19930;-70
2022/03/10 13:27:45;;;;;;;;;;;13.90;49.10;;;;;;5137755;27;19923;-71
2022/03/10 13:30:22;;;;;;;;;;;14.00;51.50;;;;;;5119270;27;19958;-70
2022/03/10 13:32:48;;;;;;;;;;;14.00;50.10;;;;;;5137907;27;19924;-70
2022/03/10 13:35:15;;;;;;;;;;;14.00;49.50;;;;;;5137748;27;19923;-73
2022/03/10 13:37:41;;;;;;;;;;;14.00;51.70;;;;;;5119683;27;19928;-70
2022/03/10 13:40:07;;;;;;;;;;;14.00;51.40;;;;;;5137392;27;20386;-71
2022/03/10 13:42:33;;;;;;;;;;;14.00;50.60;;;;;;5137341;27;19930;-70
2022/03/10 13:45:05;;;;;;;;;;;14.10;48.40;;;;;;5137360;27;19923;-71
2022/03/10 13:47:46;;;;;;;;;;;14.10;50.40;;;;;;5119552;27;19984;-70
2022/03/10 13:50:11;;;;;;;;;;;14.10;49.80;;;;;;5137570;27;19928;-70
2022/03/10 13:52:37;;;;;;;;;;;14.00;51.00;;;;;;5136125;27;19923;-71
2022/03/10 13:55:08;;;;;;;;;;;14.10;49.40;;;;;;5119128;27;19924;-71
2022/03/10 13:57:34;;;;;;;;;;;14.00;48.80;;;;;;5137158;27;19923;-70
2022/03/10 14:00:02;;;;;;;;;;;14.00;51.00;;;;;;5137382;27;19930;-70
2022/03/10 14:02:28;;;;;;;;;;;14.10;50.10;;;;;;5137259;27;19958;-70
2022/03/10 14:04:54;;;;;;;;;;;14.10;47.70;;;;;;5137080;27;20487;-72
2022/03/10 14:07:19;;;;;;;;;;;14.10;50.10;;;;;;5118657;27;19976;-71
2022/03/10 14:09:45;;;;;;;;;;;14.10;50.10;;;;;;5136931;27;19923;-71
2022/03/10 14:12:18;;;;;;;;;;;14.10;49.70;;;;;;5136860;27;20005;-70
2022/03/10 14:14:44;;;;;;;;;;;14.10;48.40;;;;;;5118497;27;20374;-71
2022/03/10 14:17:10;;;;;;;;;;;14.10;47.50;;;;;;5118619;27;19924;-71
2022/03/10 14:19:36;;;;;;;;;;;14.20;47.40;;;;;;5130039;27;19931;-70
2022/03/10 14:22:14;;;;;;;;;;;14.30;46.60;;;;;;5126905;27;20018;-71
2022/03/10 14:24:39;;;;;;;;;;;14.20;48.10;;;;;;5136502;27;20024;-70
2022/03/10 14:27:12;;;;;;;;;;;14.20;48.60;;;;;;5136848;27;19923;-73
2022/03/10 14:29:42;;;;;;;;;;;14.20;47.20;;;;;;5135462;27;20283;-74
2022/03/10 14:32:08;;;;;;;;;;;14.20;47.80;;;;;;5136641;27;19923;-71